Time;durP1;ratioP1;P1;durP2;ratioP2;P2;SDS_P1;SDS_P2;PMS_P1;PMS_P2;Temp;Humidity;BMP_temperature;BMP_pressure;BME280_temperature;BME280_humidity;BME280_pressure;Samples;Min_cycle;Max_cycle;Signal;HPM_P1;HPM_P2
2021/07/08 00:01:28;;;;;;;8.48;2.20;;;;;;;17.85;100.00;101027.13;5113559;28;20083;-77
2021/07/08 00:03:58;;;;;;;11.35;2.22;;;;;;;17.76;100.00;101029.47;5113194;28;20165;-77
2021/07/08 00:06:29;;;;;;;6.97;2.28;;;;;;;17.67;100.00;101027.34;5119457;28;20576;-78
2021/07/08 00:08:59;;;;;;;7.20;2.17;;;;;;;17.63;100.00;101023.19;5115777;28;20040;-77
2021/07/08 00:11:29;;;;;;;11.23;2.10;;;;;;;17.55;100.00;101020.13;5114860;28;20385;-77
2021/07/08 00:14:00;;;;;;;7.13;2.20;;;;;;;17.59;100.00;101026.94;5112892;29;20030;-78
2021/07/08 00:16:31;;;;;;;5.22;2.30;;;;;;;17.42;100.00;101027.03;5110835;29;20281;-78
2021/07/08 00:19:04;;;;;;;10.00;2.08;;;;;;;17.43;100.00;101042.81;5112947;28;20035;-78
2021/07/08 00:21:36;;;;;;;8.63;2.22;;;;;;;17.46;100.00;101044.44;5113509;28;20034;-78
2021/07/08 00:24:06;;;;;;;9.50;2.17;;;;;;;17.43;100.00;101041.94;5118995;28;20031;-77
2021/07/08 00:26:37;;;;;;;6.95;2.00;;;;;;;17.53;100.00;101024.66;5131418;28;20039;-78
2021/07/08 00:29:07;;;;;;;9.13;2.38;;;;;;;17.46;100.00;101024.13;5114507;28;20034;-77
2021/07/08 00:31:37;;;;;;;10.00;2.20;;;;;;;17.32;100.00;101021.38;5116268;28;20031;-77
2021/07/08 00:34:07;;;;;;;8.32;2.10;;;;;;;17.21;100.00;101028.19;5115088;29;20034;-78
2021/07/08 00:36:38;;;;;;;9.90;2.55;;;;;;;17.13;100.00;101020.69;5115095;28;20034;-78
2021/07/08 00:39:08;;;;;;;8.38;2.20;;;;;;;17.15;100.00;101020.63;5116487;28;20114;-78
2021/07/08 00:41:38;;;;;;;6.85;2.22;;;;;;;17.09;100.00;101020.94;5117050;28;20038;-77
2021/07/08 00:44:11;;;;;;;9.75;2.30;;;;;;;17.04;100.00;101018.56;5116890;28;20509;-78
2021/07/08 00:46:44;;;;;;;10.02;2.50;;;;;;;17.01;100.00;101023.16;5114950;29;20094;-78
2021/07/08 00:49:16;;;;;;;10.90;2.83;;;;;;;17.03;100.00;101023.94;5115793;28;20031;-78
2021/07/08 00:51:46;;;;;;;7.05;2.50;;;;;;;17.07;100.00;101020.19;5116051;28;20047;-78
2021/07/08 00:54:17;;;;;;;8.48;2.45;;;;;;;17.07;100.00;101025.47;5120075;28;20034;-78
2021/07/08 00:56:47;;;;;;;5.60;2.30;;;;;;;17.15;100.00;101023.28;5120653;28;20032;-78
2021/07/08 00:59:18;;;;;;;8.07;2.10;;;;;;;17.18;100.00;101023.94;5117942;28;20027;-78
2021/07/08 01:01:51;;;;;;;14.30;2.35;;;;;;;17.07;100.00;101020.19;5114222;28;20109;-78
2021/07/08 01:04:21;;;;;;;6.93;3.03;;;;;;;16.91;100.00;101019.31;5118700;29;20203;-77
2021/07/08 01:06:54;;;;;;;10.20;2.60;;;;;;;16.84;100.00;101023.22;5115593;29;20509;-78
2021/07/08 01:09:25;;;;;;;10.30;2.63;;;;;;;16.88;100.00;101020.34;5118432;28;20386;-77
2021/07/08 01:11:56;;;;;;;14.90;3.00;;;;;;;16.92;100.00;101010.44;5113495;29;20036;-78
2021/07/08 01:14:26;;;;;;;7.20;2.63;;;;;;;16.92;100.00;101024.53;5116454;28;20054;-78
2021/07/08 01:16:56;;;;;;;7.43;2.28;;;;;;;17.03;100.00;101029.22;5129127;28;20062;-78
2021/07/08 01:19:28;;;;;;;7.50;2.55;;;;;;;16.97;100.00;101033.03;5117650;28;20027;-78
2021/07/08 01:21:58;;;;;;;7.55;2.90;;;;;;;16.87;100.00;101036.25;5117963;29;20274;-78
2021/07/08 01:24:29;;;;;;;7.30;2.60;;;;;;;16.82;100.00;101031.22;5119948;28;20027;-78
2021/07/08 01:27:00;;;;;;;10.95;3.10;;;;;;;16.83;100.00;101032.91;5117326;28;20385;-78
2021/07/08 01:29:31;;;;;;;6.28;2.70;;;;;;;16.94;100.00;101021.81;5117125;28;20085;-78
2021/07/08 01:32:01;;;;;;;8.43;2.53;;;;;;;16.98;100.00;101028.63;5114638;29;20055;-78
2021/07/08 01:34:32;;;;;;;12.02;2.80;;;;;;;17.06;100.00;101013.19;5115263;28;20035;-78
2021/07/08 01:37:04;;;;;;;8.07;2.40;;;;;;;17.04;100.00;101015.06;5114796;29;20040;-78
2021/07/08 01:39:34;;;;;;;7.53;2.22;;;;;;;17.15;100.00;101004.78;5116172;28;20035;-78
2021/07/08 01:42:05;;;;;;;10.20;2.45;;;;;;;17.21;100.00;101007.06;5114977;29;20501;-78
2021/07/08 01:44:35;;;;;;;7.70;2.70;;;;;;;16.87;100.00;101007.22;5116228;28;20074;-78
2021/07/08 01:47:06;;;;;;;6.45;2.50;;;;;;;16.78;100.00;101003.28;5115034;29;20654;-78
2021/07/08 01:49:36;;;;;;;6.00;2.45;;;;;;;16.67;100.00;101004.81;5115758;28;20114;-78
2021/07/08 01:52:07;;;;;;;10.80;3.00;;;;;;;16.57;100.00;101003.56;5130586;28;20028;-78
2021/07/08 01:54:37;;;;;;;10.57;2.80;;;;;;;16.67;100.00;101003.94;5112576;28;20051;-78
2021/07/08 01:57:08;;;;;;;7.72;2.55;;;;;;;16.47;100.00;101006.78;5116216;28;20031;-78
2021/07/08 01:59:38;;;;;;;14.15;2.58;;;;;;;16.52;100.00;101016.16;5114447;28;20031;-78
2021/07/08 02:02:08;;;;;;;7.15;2.50;;;;;;;16.67;100.00;101017.13;5114079;28;20048;-78
2021/07/08 02:04:39;;;;;;;9.65;2.90;;;;;;;16.52;100.00;101024.09;5115493;28;20027;-78
2021/07/08 02:07:09;;;;;;;9.77;2.65;;;;;;;16.72;100.00;101015.97;5116370;29;20027;-78
2021/07/08 02:09:39;;;;;;;7.20;2.40;;;;;;;16.86;100.00;101016.06;5117275;28;20031;-79
2021/07/08 02:12:10;;;;;;;10.15;2.72;;;;;;;16.77;100.00;101020.06;5118118;29;20379;-79
2021/07/08 02:14:40;;;;;;;10.90;3.00;;;;;;;16.51;100.00;101032.94;5136606;28;20038;-79
2021/07/08 02:17:11;;;;;;;12.18;2.95;;;;;;;16.44;100.00;101036.84;5123350;28;20474;-79
2021/07/08 02:19:41;;;;;;;7.25;2.42;;;;;;;16.44;100.00;101049.16;5117013;28;20035;-79
2021/07/08 02:22:11;;;;;;;11.85;2.65;;;;;;;16.49;100.00;101033.94;5116426;29;20119;-79
2021/07/08 02:24:42;;;;;;;14.10;3.17;;;;;;;16.49;100.00;101039.22;5118217;28;20027;-79
2021/07/08 02:27:12;;;;;;;15.75;2.92;;;;;;;16.36;100.00;101044.28;5123380;28;20035;-78
2021/07/08 02:29:43;;;;;;;13.18;3.78;;;;;;;16.06;100.00;101043.16;5115732;28;20602;-78
2021/07/08 02:32:13;;;;;;;11.25;3.22;;;;;;;16.36;100.00;101041.66;5117040;29;20274;-79
2021/07/08 02:34:43;;;;;;;11.65;3.13;;;;;;;16.44;100.00;101042.13;5115740;28;20488;-79
2021/07/08 02:37:15;;;;;;;17.45;3.75;;;;;;;16.38;100.00;101045.06;5116329;28;20035;-79
2021/07/08 02:39:45;;;;;;;16.52;3.50;;;;;;;16.30;100.00;101049.84;5115541;28;20039;-79
2021/07/08 02:42:15;;;;;;;13.57;3.13;;;;;;;16.41;100.00;101044.91;5117189;29;20019;-79
2021/07/08 02:44:45;;;;;;;12.88;3.15;;;;;;;16.23;100.00;101044.97;5115957;28;20171;-79
2021/07/08 02:47:16;;;;;;;15.45;3.35;;;;;;;16.13;100.00;101043.72;5131644;28;20390;-79
2021/07/08 02:49:46;;;;;;;14.23;3.33;;;;;;;16.23;100.00;101048.44;5114691;28;20028;-79
2021/07/08 02:52:16;;;;;;;16.70;3.60;;;;;;;16.14;100.00;101056.84;5116154;28;20031;-79
2021/07/08 02:54:47;;;;;;;14.93;3.25;;;;;;;16.07;100.00;101055.44;5121075;28;20031;-79
2021/07/08 02:57:17;;;;;;;11.95;3.08;;;;;;;15.98;100.00;101040.09;5111503;28;20022;-79
2021/07/08 02:59:47;;;;;;;12.73;3.25;;;;;;;16.03;100.00;101037.22;5113360;28;20028;-79
2021/07/08 03:02:17;;;;;;;11.70;3.38;;;;;;;16.21;100.00;101037.13;5116418;28;20370;-79
2021/07/08 03:04:48;;;;;;;9.53;3.13;;;;;;;16.23;100.00;101034.41;5114114;28;20035;-79
2021/07/08 03:07:19;;;;;;;14.38;3.10;;;;;;;16.18;100.00;101032.00;5118015;29;20698;-79
2021/07/08 03:09:49;;;;;;;14.38;3.67;;;;;;;16.17;100.00;101029.44;5114282;28;20406;-79
2021/07/08 03:12:19;;;;;;;11.77;3.70;;;;;;;16.14;100.00;101034.88;5117727;28;20067;-79
2021/07/08 03:14:50;;;;;;;11.57;3.55;;;;;;;16.05;100.00;101030.09;5114738;28;20035;-79
2021/07/08 03:17:20;;;;;;;17.27;3.67;;;;;;;16.05;100.00;101032.72;5117963;29;20023;-79
2021/07/08 03:19:50;;;;;;;10.68;3.30;;;;;;;16.03;100.00;101032.78;5113521;28;20437;-79
2021/07/08 03:22:21;;;;;;;15.73;3.30;;;;;;;16.15;100.00;101029.53;5116007;28;20023;-79
2021/07/08 03:24:51;;;;;;;17.67;3.80;;;;;;;16.21;100.00;101036.28;5122529;28;20502;-79
2021/07/08 03:27:21;;;;;;;15.45;4.00;;;;;;;16.14;100.00;101027.84;5117820;28;20114;-79
2021/07/08 03:29:51;;;;;;;12.77;3.30;;;;;;;16.14;100.00;101025.19;5114934;28;20027;-79
2021/07/08 03:32:22;;;;;;;18.77;4.15;;;;;;;16.01;100.00;101026.75;5117086;28;20042;-79
2021/07/08 03:34:52;;;;;;;17.13;4.00;;;;;;;15.96;100.00;101034.03;5112707;29;20474;-78
2021/07/08 03:37:22;;;;;;;14.18;4.53;;;;;;;15.91;100.00;101033.38;5132980;28;20125;-79
2021/07/08 03:39:53;;;;;;;16.17;4.68;;;;;;;15.90;100.00;101050.13;5112167;28;20035;-79
2021/07/08 03:42:23;;;;;;;17.95;4.40;;;;;;;16.01;100.00;101052.28;5117550;28;20628;-79
2021/07/08 03:44:54;;;;;;;18.17;4.60;;;;;;;16.10;100.00;101054.44;5116737;29;20118;-79
2021/07/08 03:47:24;;;;;;;16.23;4.70;;;;;;;16.24;100.00;101054.59;5113242;29;20024;-79
2021/07/08 03:49:54;;;;;;;15.75;4.70;;;;;;;16.37;100.00;101053.06;5117968;28;20035;-79
2021/07/08 03:52:25;;;;;;;17.63;4.60;;;;;;;16.40;100.00;101053.75;5128079;28;20028;-79
2021/07/08 03:54:55;;;;;;;14.18;4.15;;;;;;;16.72;100.00;101055.56;5120179;28;20031;-79
2021/07/08 03:57:26;;;;;;;12.10;5.20;;;;;;;16.83;100.00;101059.31;5126661;28;20022;-79
2021/07/08 03:59:56;;;;;;;13.57;5.22;;;;;;;17.15;100.00;101052.31;5114602;28;20028;-79
2021/07/08 04:02:27;;;;;;;12.18;5.30;;;;;;;17.42;100.00;101043.75;5114188;28;20031;-79
2021/07/08 04:04:57;;;;;;;12.52;5.50;;;;;;;17.45;100.00;101048.03;5118256;28;20066;-79
2021/07/08 04:07:28;;;;;;;11.48;5.68;;;;;;;17.47;100.00;101052.25;5116997;29;20051;-79
2021/07/08 04:09:59;;;;;;;18.92;6.38;;;;;;;17.61;100.00;101049.69;5114658;28;20070;-79
2021/07/08 04:12:29;;;;;;;15.50;6.40;;;;;;;17.52;100.00;101047.56;5116959;29;20028;-80
2021/07/08 04:14:59;;;;;;;15.35;6.10;;;;;;;17.66;100.00;101044.16;5130319;28;20278;-79
2021/07/08 04:17:30;;;;;;;17.48;6.78;;;;;;;17.66;100.00;101039.72;5115197;28;20477;-79
2021/07/08 04:20:00;;;;;;;15.85;6.25;;;;;;;17.63;100.00;101023.19;5112902;28;20027;-79
2021/07/08 04:22:30;;;;;;;17.85;7.00;;;;;;;17.54;100.00;101021.94;5115818;28;20030;-79
2021/07/08 04:25:00;;;;;;;16.55;6.50;;;;;;;17.33;100.00;101032.81;5116980;28;20042;-79
2021/07/08 04:27:31;;;;;;;18.30;7.15;;;;;;;17.32;100.00;101031.94;5121151;28;20023;-79
2021/07/08 04:30:08;;;;;;;15.02;5.97;;;;;;;17.46;100.00;101031.22;5113956;28;20079;-79
2021/07/08 04:32:38;;;;;;;18.45;6.50;;;;;;;17.55;100.00;101028.03;5114020;28;20027;-79
2021/07/08 04:35:10;;;;;;;14.18;7.05;;;;;;;17.35;100.00;101033.59;5113546;28;20031;-79
2021/07/08 04:37:43;;;;;;;16.77;7.07;;;;;;;17.49;100.00;101029.25;5111070;29;20029;-79
2021/07/08 04:40:17;;;;;;;15.73;7.20;;;;;;;17.49;100.00;101031.06;5108135;28;20494;-79
2021/07/08 04:42:48;;;;;;;16.65;6.90;;;;;;;17.69;100.00;101025.47;5114111;28;20023;-79
2021/07/08 04:45:20;;;;;;;13.93;6.65;;;;;;;17.86;100.00;101020.06;5116073;28;20087;-79
2021/07/08 04:47:50;;;;;;;11.38;6.53;;;;;;;17.99;100.00;101013.13;5117763;28;20043;-79
2021/07/08 04:50:22;;;;;;;17.23;6.97;;;;;;;18.05;100.00;101018.03;5111097;28;20023;-79
2021/07/08 04:52:53;;;;;;;9.55;5.63;;;;;;;18.02;100.00;101018.22;5109461;28;20119;-79
2021/07/08 04:55:24;;;;;;;13.85;7.35;;;;;;;17.83;100.00;101033.47;5118373;28;20051;-79
2021/07/08 04:57:56;;;;;;;12.50;7.47;;;;;;;17.73;100.00;101042.84;5114998;28;20492;-79
2021/07/08 05:00:26;;;;;;;17.38;7.60;;;;;;;17.64;100.00;101043.41;5112162;28;20027;-80
2021/07/08 05:02:56;;;;;;;22.33;8.15;;;;;;;17.57;100.00;101047.31;5109984;28;20554;-79
2021/07/08 05:05:26;;;;;;;15.10;6.80;;;;;;;17.93;100.00;101053.13;5112173;28;20031;-79
2021/07/08 05:07:57;;;;;;;15.43;7.20;;;;;;;17.93;100.00;101056.66;5116953;28;20031;-79
2021/07/08 05:10:27;;;;;;;12.88;6.82;;;;;;;18.13;100.00;101064.28;5118749;28;20283;-79
2021/07/08 05:12:58;;;;;;;16.45;7.15;;;;;;;18.07;100.00;101069.06;5125623;28;20452;-79
2021/07/08 05:15:29;;;;;;;10.00;6.72;;;;;;;18.14;100.00;101062.50;5117898;29;20023;-79
2021/07/08 05:17:59;;;;;;;11.95;6.72;;;;;;;18.22;100.00;101074.31;5115318;28;20082;-80
2021/07/08 05:20:29;;;;;;;14.70;8.20;;;;;;;18.14;100.00;101073.06;5115375;28;20179;-80
2021/07/08 05:23:02;;;;;;;17.38;7.72;;;;;;;18.17;100.00;101071.06;5114474;29;20497;-80
2021/07/08 05:25:32;;;;;;;13.82;7.47;;;;;;;18.10;100.00;101071.53;5119804;28;20034;-80
2021/07/08 05:28:03;;;;;;;15.05;9.38;;;;;;;18.18;100.00;101064.84;5115790;28;20028;-80
2021/07/08 05:30:33;;;;;;;17.25;9.15;;;;;;;18.18;100.00;101066.66;5118387;28;20018;-80
2021/07/08 05:33:04;;;;;;;15.88;8.43;;;;;;;18.28;100.00;101062.53;5115010;28;20047;-80
2021/07/08 05:35:34;;;;;;;14.98;7.85;;;;;;;18.50;100.00;101068.28;5117212;28;20019;-79
2021/07/08 05:38:06;;;;;;;14.40;8.07;;;;;;;18.73;100.00;101073.03;5117531;28;20114;-80
2021/07/08 05:40:36;;;;;;;12.10;7.88;;;;;;;18.77;100.00;101068.28;5116884;28;20042;-80
2021/07/08 05:43:06;;;;;;;16.20;8.10;;;;;;;19.08;100.00;101061.97;5117817;29;20021;-80
2021/07/08 05:45:37;;;;;;;22.38;8.35;;;;;;;19.00;100.00;101054.50;5116232;28;20090;-80
2021/07/08 05:48:07;;;;;;;12.75;7.40;;;;;;;19.09;100.00;101059.19;5113611;29;20103;-80
2021/07/08 05:50:38;;;;;;;10.13;7.53;;;;;;;18.82;100.00;101070.66;5117211;28;20027;-80
2021/07/08 05:53:08;;;;;;;15.68;8.45;;;;;;;18.59;100.00;101070.34;5117551;29;20023;-80
2021/07/08 05:55:38;;;;;;;12.60;8.50;;;;;;;18.65;100.00;101077.94;5119356;28;20131;-80
2021/07/08 05:58:08;;;;;;;15.60;8.55;;;;;;;18.69;100.00;101077.66;5116503;28;20417;-79
2021/07/08 06:00:39;;;;;;;15.90;7.97;;;;;;;18.86;100.00;101085.41;5112256;28;20024;-79
2021/07/08 06:03:09;;;;;;;14.87;8.63;;;;;;;18.80;100.00;101094.56;5120085;28;20512;-79
2021/07/08 06:05:39;;;;;;;16.77;8.53;;;;;;;18.83;100.00;101094.41;5115683;29;20271;-79
2021/07/08 06:08:10;;;;;;;12.18;8.25;;;;;;;18.93;100.00;101090.25;5132228;28;20342;-79
2021/07/08 06:10:43;;;;;;;15.85;8.43;;;;;;;18.94;100.00;101086.66;5116435;28;20031;-79
2021/07/08 06:13:13;;;;;;;15.77;8.40;;;;;;;19.02;100.00;101084.38;5113524;28;20027;-79
2021/07/08 06:15:43;;;;;;;10.45;7.55;;;;;;;19.19;100.00;101091.31;5113775;29;20036;-79
2021/07/08 06:18:14;;;;;;;11.63;7.20;;;;;;;19.30;100.00;101102.94;5116558;28;20062;-79
2021/07/08 06:20:44;;;;;;;14.27;8.20;;;;;;;19.47;100.00;101102.72;5114456;28;20039;-79
2021/07/08 06:23:15;;;;;;;15.48;7.00;;;;;;;19.94;100.00;101115.59;5117020;29;20055;-79
2021/07/08 06:25:49;;;;;;;13.05;6.88;;;;;;;19.85;100.00;101111.75;5120888;28;20028;-80
2021/07/08 06:28:20;;;;;;;13.35;6.35;;;;;;;20.33;100.00;101129.75;5117443;29;20106;-79
2021/07/08 06:30:50;;;;;;;10.63;6.53;;;;;;;20.96;100.00;101126.28;5114630;28;20020;-79
2021/07/08 06:33:20;;;;;;;13.00;6.93;;;;;;;21.21;99.11;101134.22;5118630;28;20429;-79
2021/07/08 06:35:51;;;;;;;11.38;6.22;;;;;;;21.40;97.79;101123.97;5111826;28;20102;-79
2021/07/08 06:38:21;;;;;;;15.80;6.43;;;;;;;21.08;99.07;101111.28;5118734;29;20027;-79
2021/07/08 06:40:53;;;;;;;8.13;6.00;;;;;;;20.89;100.00;101118.84;5117711;28;20399;-79
2021/07/08 06:43:23;;;;;;;12.43;6.60;;;;;;;21.19;98.88;101112.22;5126917;28;20027;-79
2021/07/08 06:45:54;;;;;;;13.20;6.60;;;;;;;21.12;97.78;101112.75;5113838;29;20418;-79
2021/07/08 06:48:24;;;;;;;12.68;7.07;;;;;;;21.18;98.88;101122.94;5113270;28;20027;-79
2021/07/08 06:50:54;;;;;;;10.70;5.97;;;;;;;21.33;98.11;101117.41;5114572;28;20023;-79
2021/07/08 06:53:24;;;;;;;12.67;6.10;;;;;;;21.33;96.30;101121.88;5115396;29;20295;-79
2021/07/08 06:55:55;;;;;;;13.00;6.67;;;;;;;20.96;100.00;101117.44;5121178;28;20283;-79
2021/07/08 06:58:25;;;;;;;12.52;7.05;;;;;;;20.88;100.00;101110.00;5117839;28;20274;-79
2021/07/08 07:00:55;;;;;;;11.80;6.93;;;;;;;21.39;97.01;101097.50;5120788;29;20071;-79
2021/07/08 07:03:27;;;;;;;14.98;7.40;;;;;;;21.22;98.47;101108.50;5117397;28;20305;-79
2021/07/08 07:05:57;;;;;;;13.13;6.30;;;;;;;21.63;95.94;101109.94;5113463;29;20028;-79
2021/07/08 07:08:27;;;;;;;14.83;6.67;;;;;;;22.10;95.09;101111.75;5112860;29;20509;-80
2021/07/08 07:10:58;;;;;;;11.30;5.83;;;;;;;23.10;88.67;101099.44;5110683;28;20283;-80
2021/07/08 07:13:28;;;;;;;10.90;5.88;;;;;;;23.84;86.23;101096.97;5116379;28;20285;-80
2021/07/08 07:15:59;;;;;;;9.13;4.85;;;;;;;23.34;85.76;101092.19;5129038;28;20034;-80
2021/07/08 07:18:29;;;;;;;9.80;4.90;;;;;;;24.50;82.87;101095.84;5116408;28;20058;-80
2021/07/08 07:21:00;;;;;;;12.13;5.45;;;;;;;23.90;86.30;101103.66;5113669;28;20055;-80
2021/07/08 07:23:30;;;;;;;8.18;4.45;;;;;;;24.83;82.20;101112.56;5117738;29;20027;-80
2021/07/08 07:26:00;;;;;;;7.90;4.47;;;;;;;24.24;83.45;101107.88;5127445;28;20015;-80
2021/07/08 07:28:30;;;;;;;9.10;4.20;;;;;;;24.41;83.92;101107.31;5115636;28;20287;-80
2021/07/08 07:31:01;;;;;;;12.93;4.55;;;;;;;25.21;79.37;101105.63;5120288;29;20278;-80
2021/07/08 07:33:32;;;;;;;8.32;4.13;;;;;;;25.06;78.87;101106.06;5117201;28;20027;-80
2021/07/08 07:36:03;;;;;;;8.15;4.00;;;;;;;25.51;80.18;101107.44;5114631;29;20023;-80
2021/07/08 07:38:33;;;;;;;7.38;3.65;;;;;;;25.02;82.54;101120.72;5115837;29;20038;-80
2021/07/08 07:41:04;;;;;;;11.73;3.80;;;;;;;25.81;79.93;101126.13;5115959;28;20055;-80
2021/07/08 07:43:35;;;;;;;5.95;3.47;;;;;;;25.28;82.36;101125.50;5113903;29;20031;-80
2021/07/08 07:46:05;;;;;;;6.25;3.28;;;;;;;26.19;81.41;101110.94;5112814;29;20482;-80
2021/07/08 07:48:36;;;;;;;10.20;3.85;;;;;;;24.89;81.86;101106.69;5116844;28;20046;-79
2021/07/08 07:51:06;;;;;;;7.68;2.85;;;;;;;24.80;81.61;101110.16;5113439;29;20023;-79
2021/07/08 07:53:36;;;;;;;7.53;2.85;;;;;;;25.19;77.55;101109.41;5116299;28;20059;-80
2021/07/08 07:56:07;;;;;;;6.45;2.90;;;;;;;24.94;77.04;101099.13;5117393;28;20029;-79
2021/07/08 07:58:37;;;;;;;5.22;2.50;;;;;;;25.01;79.69;101094.94;5113569;28;20113;-79
2021/07/08 08:01:08;;;;;;;9.53;2.93;;;;;;;24.99;78.46;101089.72;5115108;28;20027;-79
2021/07/08 08:03:39;;;;;;;7.15;2.90;;;;;;;24.67;79.80;101101.50;5117642;28;20288;-79
2021/07/08 08:08:59;;;;;;;9.25;3.30;;;;;;;24.32;84.65;101108.09;5114533;28;20115;-79
2021/07/08 08:11:29;;;;;;;9.93;3.23;;;;;;;24.11;85.91;101109.88;5116998;28;20493;-80
2021/07/08 08:13:59;;;;;;;7.28;3.03;;;;;;;24.02;88.09;101110.66;5113208;29;20689;-80
2021/07/08 08:16:32;;;;;;;9.68;3.28;;;;;;;24.17;87.44;101123.59;5112412;28;20049;-79
2021/07/08 08:19:03;;;;;;;9.80;3.33;;;;;;;24.20;86.52;101126.00;5112694;28;20050;-77
2021/07/08 08:21:33;;;;;;;7.18;3.00;;;;;;;24.14;87.36;101131.00;5116664;29;20031;-78
2021/07/08 08:24:04;;;;;;;6.78;3.40;;;;;;;23.95;89.79;101128.13;5115650;28;20394;-80
2021/07/08 08:26:34;;;;;;;7.72;3.42;;;;;;;23.82;90.75;101125.63;5119808;28;20019;-79
2021/07/08 08:29:04;;;;;;;7.80;3.60;;;;;;;23.67;91.21;101129.50;5113742;28;20020;-80
2021/07/08 08:31:35;;;;;;;6.73;3.80;;;;;;;23.48;90.18;101129.28;5116322;28;20037;-78
2021/07/08 08:34:05;;;;;;;5.75;3.10;;;;;;;23.81;91.33;101134.59;5115923;28;20301;-77
2021/07/08 08:36:35;;;;;;;7.60;3.30;;;;;;;23.34;91.51;101139.38;5119704;28;20022;-77
2021/07/08 08:39:06;;;;;;;6.82;3.58;;;;;;;23.58;91.90;101138.28;5138227;28;20710;-79
2021/07/08 08:41:36;;;;;;;7.47;3.42;;;;;;;23.23;94.13;101142.88;5113615;28;20062;-80
2021/07/08 08:44:08;;;;;;;6.72;3.10;;;;;;;23.53;92.64;101136.94;5122454;28;20023;-80
2021/07/08 08:46:38;;;;;;;7.50;3.28;;;;;;;23.84;91.43;101141.53;5116613;28;20267;-79
2021/07/08 08:49:09;;;;;;;7.85;3.50;;;;;;;23.70;90.09;101145.28;5134295;28;20176;-78
2021/07/08 08:51:39;;;;;;;7.30;3.10;;;;;;;23.87;90.92;101143.97;5117663;28;20043;-80
2021/07/08 08:54:11;;;;;;;11.15;3.38;;;;;;;23.61;90.80;101148.69;5123785;28;20082;-78
2021/07/08 08:56:42;;;;;;;8.38;3.63;;;;;;;23.65;91.95;101149.28;5114795;28;20024;-78
2021/07/08 08:59:12;;;;;;;9.43;4.20;;;;;;;23.46;90.57;101157.94;5117055;29;20099;-79
2021/07/08 09:01:42;;;;;;;6.60;3.97;;;;;;;23.29;90.85;101153.06;5118185;29;20029;-80
2021/07/08 09:04:32;;;;;;;9.93;4.17;;;;;;;23.51;89.92;101152.22;5121046;28;20272;-80
2021/07/08 09:07:21;;;;;;;8.40;4.68;;;;;;;23.42;92.98;101153.81;5119556;29;20815;-79
2021/07/08 09:09:56;;;;;;;8.75;4.40;;;;;;;23.20;92.18;101153.78;5120093;28;20035;-78
2021/07/08 09:12:27;;;;;;;6.75;4.05;;;;;;;23.15;91.07;101144.44;5119980;29;20031;-79
2021/07/08 09:15:17;;;;;;;6.03;3.58;;;;;;;23.42;90.00;101148.47;5116305;29;20569;-75
2021/07/08 09:17:48;;;;;;;8.43;3.95;;;;;;;23.36;88.96;101146.28;5116853;28;20046;-79
2021/07/08 09:20:20;;;;;;;5.28;3.13;;;;;;;23.09;87.70;101139.56;5116217;28;20027;-77
2021/07/08 09:22:50;;;;;;;6.90;3.30;;;;;;;23.37;87.30;101145.31;5119501;29;20016;-79
2021/07/08 09:25:21;;;;;;;4.40;2.80;;;;;;;23.34;90.15;101140.22;5119481;28;20028;-79
2021/07/08 09:28:10;;;;;;;5.90;2.58;;;;;;;23.52;89.25;101154.75;5124746;28;20311;-79
2021/07/08 09:30:43;;;;;;;6.85;2.42;;;;;;;23.81;88.64;101171.09;5123931;29;20212;-79
2021/07/08 09:33:36;;;;;;;5.13;2.30;;;;;;;24.18;85.55;101176.03;5118584;28;20042;-76
2021/07/08 09:36:09;;;;;;;7.47;2.50;;;;;;;23.97;87.21;101171.59;5122495;29;20028;-79
2021/07/08 09:38:42;;;;;;;7.97;2.80;;;;;;;23.66;89.83;101161.66;5122461;28;20120;-77
2021/07/08 09:41:17;;;;;;;5.80;2.60;;;;;;;23.44;89.09;101146.53;5121424;29;20027;-77
2021/07/08 09:43:48;;;;;;;5.80;2.50;;;;;;;23.42;91.10;101144.94;5120009;28;20618;-77
2021/07/08 09:46:35;;;;;;;5.72;2.30;;;;;;;23.24;91.37;101147.25;5122207;29;20139;-78
2021/07/08 09:49:08;;;;;;;6.68;2.53;;;;;;;23.23;90.72;101148.19;5116764;28;20031;-80
2021/07/08 09:51:41;;;;;;;5.45;2.22;;;;;;;23.50;89.52;101146.03;5120623;28;20058;-78
2021/07/08 09:54:24;;;;;;;6.53;2.58;;;;;;;23.61;89.53;101145.16;5136496;28;20034;-77
2021/07/08 09:56:55;;;;;;;7.07;2.08;;;;;;;23.69;86.13;101140.91;5114629;28;20039;-80
2021/07/08 09:59:36;;;;;;;6.53;2.22;;;;;;;23.60;83.30;101152.34;5120888;28;20438;-80
2021/07/08 10:02:06;;;;;;;7.43;2.40;;;;;;;23.63;84.83;101144.09;5118374;29;20027;-80
2021/07/08 10:04:38;;;;;;;5.85;1.90;;;;;;;23.62;83.24;101145.06;5117179;29;20221;-79
2021/07/08 10:07:08;;;;;;;6.00;2.15;;;;;;;23.57;85.79;101133.88;5132623;28;20035;-80
2021/07/08 10:09:39;;;;;;;3.87;1.80;;;;;;;23.82;83.51;101128.31;5118927;28;20024;-80
2021/07/08 10:12:10;;;;;;;6.78;2.00;;;;;;;23.85;84.97;101125.38;5133068;28;20576;-77
2021/07/08 10:14:43;;;;;;;5.82;2.05;;;;;;;23.99;85.04;101127.78;5120997;28;20028;-78
2021/07/08 10:17:16;;;;;;;5.35;2.17;;;;;;;24.05;84.21;101121.91;5116910;28;20034;-80
2021/07/08 10:19:47;;;;;;;7.80;2.65;;;;;;;24.17;83.53;101125.38;5120791;28;20581;-78
2021/07/08 10:22:19;;;;;;;7.93;2.20;;;;;;;24.56;81.33;101120.25;5115640;28;20031;-79
2021/07/08 10:24:50;;;;;;;8.70;2.33;;;;;;;24.74;82.03;101121.38;5119695;28;20034;-77
2021/07/08 10:27:21;;;;;;;5.38;1.95;;;;;;;24.96;79.43;101124.75;5117258;28;20031;-80
2021/07/08 10:29:53;;;;;;;4.47;1.73;;;;;;;25.06;78.60;101116.78;5115055;29;20478;-78
2021/07/08 10:32:24;;;;;;;4.20;1.80;;;;;;;25.66;79.33;101114.09;5118459;28;20024;-79
2021/07/08 10:34:55;;;;;;;7.25;1.90;;;;;;;25.79;76.45;101109.31;5110695;29;20039;-78
2021/07/08 10:37:28;;;;;;;4.30;1.98;;;;;;;25.43;79.07;101116.13;5118475;28;20030;-78
2021/07/08 10:40:00;;;;;;;5.00;1.92;;;;;;;25.55;76.95;101108.84;5117187;28;20103;-78
2021/07/08 10:42:44;;;;;;;4.47;1.80;;;;;;;25.53;75.17;101110.81;5120731;28;20070;-78
2021/07/08 10:45:41;;;;;;;4.35;1.63;;;;;;;25.42;73.23;101108.22;5118532;29;20035;-79
2021/07/08 10:48:14;;;;;;;6.68;2.10;;;;;;;25.63;75.70;101109.03;5118971;29;20030;-79
2021/07/08 10:50:48;;;;;;;3.90;2.13;;;;;;;25.67;76.51;101107.75;5118175;28;20050;-80
2021/07/08 10:53:30;;;;;;;6.70;1.85;;;;;;;26.08;74.55;101094.16;5105090;28;20028;-80
2021/07/08 10:56:03;;;;;;;5.38;1.73;;;;;;;25.95;73.15;101093.59;5112753;28;20044;-79
2021/07/08 10:58:47;;;;;;;7.63;1.70;;;;;;;25.96;75.24;101097.94;5117722;28;20407;-79
2021/07/08 11:01:23;;;;;;;6.25;1.70;;;;;;;26.55;73.06;101091.50;5108379;28;20031;-81
2021/07/08 11:04:03;;;;;;;5.35;1.77;;;;;;;26.23;72.95;101100.81;5111679;29;20141;-78
2021/07/08 11:06:40;;;;;;;7.05;1.60;;;;;;;25.93;73.00;101100.91;5114309;29;20031;-78
2021/07/08 11:09:11;;;;;;;4.03;1.58;;;;;;;26.44;69.56;101093.44;5113487;28;20027;-81
2021/07/08 11:11:42;;;;;;;6.60;1.70;;;;;;;26.40;69.29;101094.72;5112646;29;20628;-81
2021/07/08 11:14:14;;;;;;;4.45;1.70;;;;;;;26.31;67.61;101093.75;5110540;29;20395;-80
2021/07/08 11:16:46;;;;;;;5.47;1.52;;;;;;;26.83;70.01;101075.34;5111630;29;20042;-79
2021/07/08 11:19:19;;;;;;;7.07;1.95;;;;;;;26.52;68.43;101080.22;5110869;28;20057;-78
2021/07/08 11:21:49;;;;;;;6.80;1.52;;;;;;;27.02;68.62;101075.28;5118811;29;20053;-79
2021/07/08 11:24:30;;;;;;;8.17;1.63;;;;;;;27.01;68.80;101070.91;5115989;28;20091;-80
2021/07/08 11:27:03;;;;;;;8.00;1.70;;;;;;;26.65;67.08;101072.72;5116994;28;20434;-79
2021/07/08 11:29:45;;;;;;;3.30;1.33;;;;;;;26.34;67.40;101063.13;5113318;28;20028;-79
2021/07/08 11:32:25;;;;;;;5.75;1.60;;;;;;;26.54;71.10;101067.50;5112357;29;20123;-81
2021/07/08 11:35:02;;;;;;;4.68;1.50;;;;;;;26.37;69.49;101069.03;5115291;28;20034;-81
2021/07/08 11:37:44;;;;;;;4.80;1.50;;;;;;;26.57;69.02;101061.84;5116141;28;20027;-78
2021/07/08 11:40:17;;;;;;;5.10;1.50;;;;;;;26.41;67.43;101064.25;5114398;29;20023;-78